Metaltrade 3 — YP0431 — position and weather

sailwx.info

Track history (hours):
 
Tides and Currents Weather Stations Pressure Air Temp Water Temp Dewpoint Dewpoint Depression Visibility Wind Speed Wind Dir Waves Ship Positions

Metaltrade 3

Last reported at 2018-Jul-16 16:26 UTC. Time now 2018-Jul-17 22:38 UTC.
Position N 44°17' E 028°04'.

Length 95 m; draft 2.5 m.

Type: Ship. MMSI: 264160431.

Date/timePositionNaut miles runAvg speedWind from/ knotsBaromVisibWave heightAir tempDewpointWater temp
2018-Jul-16 16:26N 44°17' E 028°04'3 6.8
2018-Jul-16 15:58N 44°16' E 028°08'3 7.0
2018-Jul-16 15:30N 44°16' E 028°12'4 6.9
2018-Jul-16 15:00N 44°15' E 028°17'3 6.4
2018-Jul-16 14:30N 44°14' E 028°22'4 6.6
2018-Jul-16 13:56N 44°11' E 028°24'8 5.9
2018-Jul-16 12:34N 44°06' E 028°33'1 6.6
2018-Jul-16 12:28N 44°06' E 028°34'3 5.7
2018-Jul-16 12:00N 44°06' E 028°37'0 0.5
2018-Jul-16 11:30N 44°06' E 028°38'2 3.0
2018-Jul-16 11:00N 44°07' E 028°39'0 0.1
2018-Jul-16 10:31N 44°07' E 028°39'0 0.0
2018-Jul-16 10:00N 44°07' E 028°39'0 0.0
2018-Jul-16 09:30N 44°07' E 028°39'0 0.0
2018-Jul-16 09:00N 44°07' E 028°39'0 0.0
2018-Jul-16 08:30N 44°07' E 028°39'0 0.0
2018-Jul-16 08:00N 44°07' E 028°39'0 0.0
2018-Jul-16 07:30N 44°07' E 028°39'0 0.0
2018-Jul-16 07:00N 44°07' E 028°39'0 0.0
2018-Jul-16 06:30N 44°07' E 028°39'0 0.0
2018-Jul-16 06:00N 44°07' E 028°39'0 0.0
2018-Jul-16 05:30N 44°07' E 028°39'0 0.0
2018-Jul-16 05:00N 44°07' E 028°39'0 0.0
2018-Jul-16 04:30N 44°07' E 028°39'0 0.0
2018-Jul-16 04:00N 44°07' E 028°39'1 2.4
2018-Jul-16 03:30N 44°08' E 028°39'2 3.5
2018-Jul-16 03:00N 44°10' E 028°39'0 0.1
2018-Jul-16 02:30N 44°10' E 028°39'0 0.0
2018-Jul-16 02:00N 44°10' E 028°39'0 0.0
2018-Jul-16 01:30N 44°10' E 028°39'0 0.0
2018-Jul-16 01:00N 44°10' E 028°39'0 0.0
2018-Jul-16 00:30N 44°10' E 028°39'0 0.0
2018-Jul-16 00:00N 44°10' E 028°39'0 0.0
2018-Jul-15 23:30N 44°10' E 028°39'0 0.0
2018-Jul-15 23:00N 44°10' E 028°39'0 0.0
2018-Jul-15 22:30N 44°10' E 028°39'0 0.0
2018-Jul-15 22:00N 44°10' E 028°39'0 0.0
2018-Jul-15 21:30N 44°10' E 028°39'0 0.0
2018-Jul-15 21:00N 44°10' E 028°39'0 0.0
2018-Jul-15 20:30N 44°10' E 028°39'0 0.0
2018-Jul-15 20:00N 44°10' E 028°39'0 0.0
2018-Jul-15 19:30N 44°10' E 028°39'0 0.0
2018-Jul-15 19:00N 44°10' E 028°39'0 0.0
2018-Jul-15 18:30N 44°10' E 028°39'0 0.0
2018-Jul-15 18:00N 44°10' E 028°39'0 0.0
2018-Jul-15 17:30N 44°10' E 028°39'0 0.0
2018-Jul-15 17:00N 44°10' E 028°39'0 0.0
2018-Jul-15 16:30N 44°10' E 028°39'0 0.0
2018-Jul-15 16:00N 44°10' E 028°39'0 0.0
2018-Jul-15 15:30N 44°10' E 028°39'0 0.0
2018-Jul-15 15:00N 44°10' E 028°39'0 0.0
2018-Jul-15 14:30N 44°10' E 028°39'0 0.0
2018-Jul-15 14:00N 44°10' E 028°39'0 0.0
2018-Jul-15 13:30N 44°10' E 028°39'1 1.8
2018-Jul-15 13:00N 44°09' E 028°39'2 4.0
2018-Jul-15 12:30N 44°07' E 028°39'0 0.4
2018-Jul-15 12:00N 44°07' E 028°39'0 0.0
2018-Jul-15 11:30N 44°07' E 028°39'0 0.0
2018-Jul-15 11:00N 44°07' E 028°39'0 0.0
2018-Jul-15 10:30N 44°07' E 028°39'0 0.0
2018-Jul-15 10:00N 44°07' E 028°39'0 0.0
2018-Jul-15 09:30N 44°07' E 028°39'0 0.0
2018-Jul-15 09:00N 44°07' E 028°39'0 0.0
2018-Jul-15 08:30N 44°07' E 028°39'0 0.0
2018-Jul-15 08:00N 44°07' E 028°39'0 0.0
2018-Jul-15 07:30N 44°07' E 028°39'0 0.0
2018-Jul-15 07:00N 44°07' E 028°39'0 0.0
2018-Jul-15 06:30N 44°07' E 028°39'0 0.0
2018-Jul-15 06:00N 44°07' E 028°39'0 0.0
2018-Jul-15 05:30N 44°07' E 028°39'0 0.0
2018-Jul-15 05:00N 44°07' E 028°39'0 0.0
2018-Jul-15 04:30N 44°07' E 028°39'0 0.0
2018-Jul-15 04:00N 44°07' E 028°39'0 0.0
2018-Jul-15 03:30N 44°07' E 028°39'0 0.0
2018-Jul-15 03:00N 44°07' E 028°39'0 0.0
2018-Jul-15 02:30N 44°07' E 028°39'0 0.0
2018-Jul-15 02:00N 44°07' E 028°39'0 0.0
2018-Jul-15 01:30N 44°07' E 028°39'0 0.0
2018-Jul-15 01:00N 44°07' E 028°39'0 0.0
2018-Jul-15 00:30N 44°07' E 028°39'0 0.0
2018-Jul-15 00:00N 44°07' E 028°39'0 0.0
2018-Jul-14 23:30N 44°07' E 028°39'0 0.0
2018-Jul-14 23:00N 44°07' E 028°39'0 0.0
2018-Jul-14 22:30N 44°07' E 028°39'0 0.0
2018-Jul-14 22:00N 44°07' E 028°39'0 0.0
2018-Jul-14 21:30N 44°07' E 028°39'0 0.0
2018-Jul-14 21:00N 44°07' E 028°39'0 0.0
2018-Jul-14 20:30N 44°07' E 028°39'0 0.0
2018-Jul-14 20:00N 44°07' E 028°39'0 0.0
2018-Jul-14 19:30N 44°07' E 028°39'0 0.0
2018-Jul-14 19:00N 44°07' E 028°39'0 0.0
2018-Jul-14 18:30N 44°07' E 028°39'0 0.0
2018-Jul-14 18:00N 44°07' E 028°39'0 0.0
2018-Jul-14 17:30N 44°07' E 028°39'0 0.0
2018-Jul-14 17:00N 44°07' E 028°39'0 0.0
2018-Jul-14 16:30N 44°07' E 028°39'0 0.0
2018-Jul-14 16:00N 44°07' E 028°39'0 0.0
2018-Jul-14 15:30N 44°07' E 028°39'0 0.0
2018-Jul-14 15:00N 44°07' E 028°39'0 0.0
2018-Jul-14 13:59N 44°07' E 028°39'0 0.0
2018-Jul-14 13:30N 44°07' E 028°39'0 0.0
2018-Jul-14 13:00N 44°07' E 028°39'0 0.0
2018-Jul-14 12:30N 44°07' E 028°39'0 0.0
2018-Jul-14 12:00N 44°07' E 028°39'0 0.0
2018-Jul-14 11:30N 44°07' E 028°39'0 0.0
2018-Jul-14 11:00N 44°07' E 028°39'0 0.0
2018-Jul-14 10:30N 44°07' E 028°39'0 0.0
2018-Jul-14 10:00N 44°07' E 028°39'0 0.0
2018-Jul-14 09:30N 44°07' E 028°39'0 0.0
2018-Jul-14 09:00N 44°07' E 028°39'0 0.0
2018-Jul-14 08:30N 44°07' E 028°39'0 0.1
2018-Jul-14 08:00N 44°07' E 028°39'1 2.2
2018-Jul-14 07:30N 44°06' E 028°39'0 0.0
2018-Jul-14 07:00N 44°06' E 028°39'0 0.0
2018-Jul-14 06:30N 44°06' E 028°39'0 0.0
2018-Jul-14 06:00N 44°06' E 028°39'1 2.3
2018-Jul-14 05:30N 44°07' E 028°39'0 0.1
2018-Jul-14 05:00N 44°07' E 028°39'0 0.0
2018-Jul-14 04:30N 44°07' E 028°39'0 0.0
2018-Jul-14 04:00N 44°07' E 028°39'0 0.0
2018-Jul-14 03:30N 44°07' E 028°39'0 0.0
2018-Jul-14 03:00N 44°07' E 028°39'0 0.0
2018-Jul-14 02:30N 44°07' E 028°39'0 0.0
2018-Jul-14 02:00N 44°07' E 028°39'0 0.0
2018-Jul-14 01:30N 44°07' E 028°39'0 0.0
2018-Jul-14 01:00N 44°07' E 028°39'0 0.0
2018-Jul-14 00:30N 44°07' E 028°39'0 0.0
2018-Jul-14 00:00N 44°07' E 028°39'0 0.0
2018-Jul-13 23:30N 44°07' E 028°39'0 0.0
2018-Jul-13 23:00N 44°07' E 028°39'0 0.0
2018-Jul-13 22:30N 44°07' E 028°39'0 0.0
2018-Jul-13 22:00N 44°07' E 028°39'0 0.0
2018-Jul-13 21:30N 44°07' E 028°39'0 0.0
2018-Jul-13 21:00N 44°07' E 028°39'0 0.0
2018-Jul-13 20:30N 44°07' E 028°39'0 0.0
2018-Jul-13 20:00N 44°07' E 028°39'0 0.0
2018-Jul-13 19:30N 44°07' E 028°39'0 0.0
2018-Jul-13 19:00N 44°07' E 028°39'0 0.0
2018-Jul-13 18:30N 44°07' E 028°39'0 0.0
2018-Jul-13 18:00N 44°07' E 028°39'0 0.0
2018-Jul-13 17:30N 44°07' E 028°39'0 0.0
2018-Jul-13 17:00N 44°07' E 028°39'0 0.0
2018-Jul-13 16:30N 44°07' E 028°39'0 0.0
2018-Jul-13 16:00N 44°07' E 028°39'0 0.0
2018-Jul-13 15:30N 44°07' E 028°39'0 0.0
2018-Jul-13 15:00N 44°07' E 028°39'0 0.0
2018-Jul-13 14:00N 44°07' E 028°39'0 0.0
2018-Jul-13 13:30N 44°07' E 028°39'0 0.0
2018-Jul-13 13:00N 44°07' E 028°39'0 0.0
2018-Jul-13 12:30N 44°07' E 028°39'0 0.0
2018-Jul-13 12:00N 44°07' E 028°39'0 0.0
2018-Jul-13 11:30N 44°07' E 028°39'0 0.0
2018-Jul-13 11:00N 44°07' E 028°39'0 0.0
2018-Jul-13 10:30N 44°07' E 028°39'0 0.0
2018-Jul-13 10:00N 44°07' E 028°39'0 0.0
2018-Jul-13 09:30N 44°07' E 028°39'0 0.0
2018-Jul-13 09:00N 44°07' E 028°39'0 0.0
2018-Jul-13 08:30N 44°07' E 028°39'0 0.0
2018-Jul-13 08:00N 44°07' E 028°39'0 0.0
2018-Jul-13 07:30N 44°07' E 028°39'0 0.0
2018-Jul-13 07:00N 44°07' E 028°39'0 0.0
2018-Jul-13 06:30N 44°07' E 028°39'0 0.0
2018-Jul-13 06:00N 44°07' E 028°39'0 0.0
2018-Jul-13 05:29N 44°07' E 028°39'0 0.0
2018-Jul-13 05:00N 44°07' E 028°39'0 0.0
2018-Jul-13 04:30N 44°07' E 028°39'0 0.0
2018-Jul-13 04:00N 44°07' E 028°39'0 0.0
2018-Jul-13 03:30N 44°07' E 028°39'0 0.0
2018-Jul-13 03:00N 44°07' E 028°39'0 0.0
2018-Jul-13 02:30N 44°07' E 028°39'0 0.0
2018-Jul-13 02:00N 44°07' E 028°39'0 0.0
2018-Jul-13 01:30N 44°07' E 028°39'0 0.0
2018-Jul-13 01:00N 44°07' E 028°39'0 0.0
2018-Jul-13 00:30N 44°07' E 028°39'0 0.0
2018-Jul-13 00:00N 44°07' E 028°39'0 0.0
2018-Jul-12 23:30N 44°07' E 028°39'0 0.0
2018-Jul-12 23:00N 44°07' E 028°39'0 0.0
2018-Jul-12 22:30N 44°07' E 028°39'0 0.0
2018-Jul-12 21:58N 44°07' E 028°39'0 0.0
2018-Jul-12 21:30N 44°07' E 028°39'0 0.0
2018-Jul-12 21:00N 44°07' E 028°39'0 0.0
2018-Jul-12 20:30N 44°07' E 028°39'0 0.0
2018-Jul-12 20:00N 44°07' E 028°39'0 0.0
2018-Jul-12 19:30N 44°07' E 028°39'0 0.0
2018-Jul-12 18:59N 44°07' E 028°39'0 0.0
2018-Jul-12 18:30N 44°07' E 028°39'0 0.0
2018-Jul-12 18:00N 44°07' E 028°39'0 0.0
2018-Jul-12 17:30N 44°07' E 028°39'0 0.0
2018-Jul-12 17:00N 44°07' E 028°39'0 0.0
2018-Jul-12 16:30N 44°07' E 028°39'0 0.0
2018-Jul-12 16:00N 44°07' E 028°39'0 0.0
2018-Jul-12 15:30N 44°07' E 028°39'0 0.0
2018-Jul-12 15:00N 44°07' E 028°39'0 0.0
2018-Jul-12 14:30N 44°07' E 028°39'0 0.0
2018-Jul-12 14:00N 44°07' E 028°39'0 0.0
2018-Jul-12 13:30N 44°07' E 028°39'0 0.0
2018-Jul-12 13:00N 44°07' E 028°39'0 0.0
2018-Jul-12 12:30N 44°07' E 028°39'0 0.0
2018-Jul-12 12:00N 44°07' E 028°39'0 0.0
2018-Jul-12 11:30N 44°07' E 028°39'0 0.0
2018-Jul-12 11:00N 44°07' E 028°39'0 0.0
2018-Jul-12 10:30N 44°07' E 028°39'0 0.0
2018-Jul-12 10:00N 44°07' E 028°39'0 0.0
2018-Jul-12 09:30N 44°07' E 028°39'0 0.0
2018-Jul-12 09:00N 44°07' E 028°39'0 0.0
2018-Jul-12 08:30N 44°07' E 028°39'0 0.0
2018-Jul-12 08:00N 44°07' E 028°39'0 0.0
2018-Jul-12 07:30N 44°07' E 028°39'0 0.0
2018-Jul-12 06:58N 44°07' E 028°39'0 0.0
2018-Jul-12 06:30N 44°07' E 028°39'0 0.0
2018-Jul-12 06:00N 44°07' E 028°39'0 0.0
2018-Jul-12 05:30N 44°07' E 028°39'0 0.0
2018-Jul-12 05:00N 44°07' E 028°39'0 0.0
2018-Jul-12 04:30N 44°07' E 028°39'0 0.0
2018-Jul-12 04:00N 44°07' E 028°39'0 0.0
2018-Jul-12 03:30N 44°07' E 028°39'0 0.0
2018-Jul-12 03:00N 44°07' E 028°39'0 0.0
2018-Jul-12 02:30N 44°07' E 028°39'0 0.0
2018-Jul-12 02:00N 44°07' E 028°39'0 0.0
2018-Jul-12 01:30N 44°07' E 028°39'0 0.0
2018-Jul-12 01:00N 44°07' E 028°39'0 0.0
2018-Jul-12 00:30N 44°07' E 028°39'0 0.0
2018-Jul-12 00:00N 44°07' E 028°39'0 0.0
2018-Jul-11 23:30N 44°07' E 028°39'0 0.0
2018-Jul-11 23:00N 44°07' E 028°39'0 0.0
2018-Jul-11 22:30N 44°07' E 028°39'0 0.0
2018-Jul-11 22:00N 44°07' E 028°39'0 0.0
2018-Jul-11 21:30N 44°07' E 028°39'0 0.0
2018-Jul-11 21:00N 44°07' E 028°39'0 0.0
2018-Jul-11 20:30N 44°07' E 028°39'0 0.0
2018-Jul-11 20:00N 44°07' E 028°39'0 0.0
2018-Jul-11 19:30N 44°07' E 028°39'0 0.0
2018-Jul-11 19:00N 44°07' E 028°39'0 0.0
2018-Jul-11 18:30N 44°07' E 028°39'0 0.0
2018-Jul-11 18:00N 44°07' E 028°39'0 0.0
2018-Jul-11 17:30N 44°07' E 028°39'0 0.0
2018-Jul-11 17:00N 44°07' E 028°39'0 0.0
2018-Jul-11 16:30N 44°07' E 028°39'0 0.0
2018-Jul-11 16:00N 44°07' E 028°39'0 0.0
2018-Jul-11 15:30N 44°07' E 028°39'0 0.0
2018-Jul-11 15:00N 44°07' E 028°39'0 0.0
2018-Jul-11 14:30N 44°07' E 028°39'0 0.0
2018-Jul-11 14:00N 44°07' E 028°39'0 0.0
2018-Jul-11 13:30N 44°07' E 028°39'0 0.0
2018-Jul-11 13:00N 44°07' E 028°39'0 0.0
2018-Jul-11 12:30N 44°07' E 028°39'0 0.0
2018-Jul-11 12:00N 44°07' E 028°39'0 0.0
2018-Jul-11 11:30N 44°07' E 028°39'0 0.0
2018-Jul-11 11:00N 44°07' E 028°39'0 0.0
2018-Jul-11 10:30N 44°07' E 028°39'0 0.0
2018-Jul-11 10:00N 44°07' E 028°39'0 0.0
2018-Jul-11 09:30N 44°07' E 028°39'0 0.0
2018-Jul-11 09:00N 44°07' E 028°39'0 0.0
2018-Jul-11 08:30N 44°07' E 028°39'0 0.0
2018-Jul-11 08:00N 44°07' E 028°39'0 0.2
2018-Jul-11 07:30N 44°07' E 028°39'0 0.0
2018-Jul-11 07:00N 44°07' E 028°39'0 0.0
2018-Jul-11 06:30N 44°07' E 028°39'0 0.0
2018-Jul-11 06:00N 44°07' E 028°39'0 0.0
2018-Jul-11 05:30N 44°07' E 028°39'0 0.0
2018-Jul-11 05:00N 44°07' E 028°39'0 0.0
2018-Jul-11 04:30N 44°07' E 028°39'0 0.0
2018-Jul-11 04:00N 44°07' E 028°39'0 0.0
2018-Jul-11 03:30N 44°07' E 028°39'0 0.0
2018-Jul-11 03:00N 44°07' E 028°39'0 0.0
2018-Jul-11 02:30N 44°07' E 028°39'0 0.0
2018-Jul-11 02:00N 44°07' E 028°39'0 0.0
2018-Jul-11 01:30N 44°07' E 028°39'0 0.0
2018-Jul-11 01:00N 44°07' E 028°39'0 0.0
2018-Jul-11 00:30N 44°07' E 028°39'0 0.0
2018-Jul-11 00:00N 44°07' E 028°39'0 0.0
2018-Jul-10 23:30N 44°07' E 028°39'0 0.0
2018-Jul-10 23:00N 44°07' E 028°39'0 0.0
2018-Jul-10 22:30N 44°07' E 028°39'0 0.0
2018-Jul-10 22:00N 44°07' E 028°39'0 0.0
2018-Jul-10 21:30N 44°07' E 028°39'0 0.0
2018-Jul-10 21:00N 44°07' E 028°39'0 0.0
2018-Jul-10 20:30N 44°07' E 028°39'0 0.0
2018-Jul-10 20:00N 44°07' E 028°39'0 0.0
2018-Jul-10 19:30N 44°07' E 028°39'0 0.0
2018-Jul-10 19:00N 44°07' E 028°39'0 0.0
2018-Jul-10 18:30N 44°07' E 028°39'0 0.0
2018-Jul-10 18:00N 44°07' E 028°39'0 0.0
2018-Jul-10 17:30N 44°07' E 028°39'0 0.0
2018-Jul-10 16:58N 44°07' E 028°39'0 0.0
2018-Jul-10 16:30N 44°07' E 028°39'0 0.0
2018-Jul-10 16:00N 44°07' E 028°39'0 0.0
2018-Jul-10 15:30N 44°07' E 028°39'0 0.0
2018-Jul-10 15:00N 44°07' E 028°39'0 0.0
2018-Jul-10 14:30N 44°07' E 028°39'0 0.0
2018-Jul-10 14:00N 44°07' E 028°39'0 0.0
2018-Jul-10 13:30N 44°07' E 028°39'0 0.0
2018-Jul-10 13:00N 44°07' E 028°39'0 0.0
2018-Jul-10 12:30N 44°07' E 028°39'0 0.0
2018-Jul-10 12:00N 44°07' E 028°39'0 0.0
2018-Jul-10 11:30N 44°07' E 028°39'0 0.0
2018-Jul-10 11:00N 44°07' E 028°39'0 0.0
2018-Jul-10 10:30N 44°07' E 028°39'0 0.0
2018-Jul-10 10:00N 44°07' E 028°39'0 0.0
2018-Jul-10 09:30N 44°07' E 028°39'0 0.0
2018-Jul-10 09:00N 44°07' E 028°39'0 0.0
2018-Jul-10 08:30N 44°07' E 028°39'0 0.0
2018-Jul-10 08:00N 44°07' E 028°39'0 0.0
2018-Jul-10 07:29N 44°07' E 028°39'0 0.1
2018-Jul-10 07:00N 44°07' E 028°39'1 1.1
2018-Jul-10 06:30N 44°07' E 028°39'0 0.0
2018-Jul-10 06:00N 44°07' E 028°39'1 1.5
2018-Jul-10 05:30N 44°07' E 028°39'0 0.4
2018-Jul-10 04:59N 44°07' E 028°39'0 0.0
2018-Jul-10 04:30N 44°07' E 028°39'0 0.0
2018-Jul-10 04:00N 44°07' E 028°39'0 0.0
2018-Jul-10 03:30N 44°07' E 028°39'0 0.0
2018-Jul-10 03:00N 44°07' E 028°39'0 0.0
2018-Jul-10 02:30N 44°07' E 028°39'0 0.0
2018-Jul-10 02:00N 44°07' E 028°39'0 0.0
2018-Jul-10 01:30N 44°07' E 028°39'0 0.0
2018-Jul-10 01:00N 44°07' E 028°39'0 0.0
2018-Jul-10 00:30N 44°07' E 028°39'0 0.0
2018-Jul-10 00:00N 44°07' E 028°39'0 0.0
2018-Jul-09 23:30N 44°07' E 028°39'0 0.0
2018-Jul-09 23:00N 44°07' E 028°39'0 0.0
2018-Jul-09 22:30N 44°07' E 028°39'0 0.0
2018-Jul-09 22:00N 44°07' E 028°39'0 0.0
2018-Jul-09 21:30N 44°07' E 028°39'0 0.0
2018-Jul-09 21:00N 44°07' E 028°39'0 0.0
2018-Jul-09 20:30N 44°07' E 028°39'0 0.0
2018-Jul-09 20:00N 44°07' E 028°39'0 0.0
2018-Jul-09 19:30N 44°07' E 028°39'0 0.0
2018-Jul-09 19:00N 44°07' E 028°39'0 0.0
2018-Jul-09 18:30N 44°07' E 028°39'0 0.0
2018-Jul-09 18:00N 44°07' E 028°39'0 0.0
2018-Jul-09 17:30N 44°07' E 028°39'0 0.0
2018-Jul-09 17:00N 44°07' E 028°39'0 0.0
2018-Jul-09 16:30N 44°07' E 028°39'0 0.0
2018-Jul-09 16:00N 44°07' E 028°39'0 0.0
2018-Jul-09 15:30N 44°07' E 028°39'0 0.0
2018-Jul-09 15:00N 44°07' E 028°39'0 0.0
2018-Jul-09 14:30N 44°07' E 028°39'0 0.0
2018-Jul-09 14:00N 44°07' E 028°39'0 0.0
2018-Jul-09 13:30N 44°07' E 028°39'0 0.2
2018-Jul-09 13:00N 44°07' E 028°39'0 0.0
2018-Jul-09 12:30N 44°07' E 028°39'0 0.0
2018-Jul-09 12:01N 44°07' E 028°39'0 0.0
2018-Jul-09 11:30N 44°07' E 028°39'0 0.0
2018-Jul-09 11:00N 44°07' E 028°39'0 0.0
2018-Jul-09 10:30N 44°07' E 028°39'0 0.0
2018-Jul-09 10:00N 44°07' E 028°39'0 0.0
2018-Jul-09 09:30N 44°07' E 028°39'0 0.0
2018-Jul-09 09:00N 44°07' E 028°39'0 0.0
2018-Jul-09 08:30N 44°07' E 028°39'0 0.2
2018-Jul-09 08:00N 44°07' E 028°39'0 0.0
2018-Jul-09 07:30N 44°07' E 028°39'0 0.0
2018-Jul-09 07:00N 44°07' E 028°39'0 0.0
2018-Jul-09 06:30N 44°07' E 028°39'0 0.0
2018-Jul-09 06:00N 44°07' E 028°39'0 0.0
2018-Jul-09 05:30N 44°07' E 028°39'0 0.0
2018-Jul-09 05:00N 44°07' E 028°39'0 0.0
2018-Jul-09 04:30N 44°07' E 028°39'0 0.0
2018-Jul-09 04:00N 44°07' E 028°39'0 0.0
2018-Jul-09 03:30N 44°07' E 028°39'0 0.0
2018-Jul-09 03:00N 44°07' E 028°39'0 0.0
2018-Jul-09 02:30N 44°07' E 028°39'0 0.0
2018-Jul-09 02:00N 44°07' E 028°39'0 0.0
2018-Jul-09 01:30N 44°07' E 028°39'0 0.0
2018-Jul-09 01:00N 44°07' E 028°39'0 0.0
2018-Jul-09 00:30N 44°07' E 028°39'0 0.0
2018-Jul-09 00:00N 44°07' E 028°39'0 0.0
2018-Jul-08 23:30N 44°07' E 028°39'0 0.0
2018-Jul-08 23:00N 44°07' E 028°39'0 0.0
2018-Jul-08 22:30N 44°07' E 028°39'0 0.0
2018-Jul-08 22:00N 44°07' E 028°39'0 0.0
2018-Jul-08 21:30N 44°07' E 028°39'0 0.0
2018-Jul-08 21:00N 44°07' E 028°39'0 0.0
2018-Jul-08 20:30N 44°07' E 028°39'0 0.0
2018-Jul-08 20:00N 44°07' E 028°39'0 0.0
2018-Jul-08 19:30N 44°07' E 028°39'0 0.0
2018-Jul-08 19:00N 44°07' E 028°39'0 0.0
2018-Jul-08 18:30N 44°07' E 028°39'0 0.0
2018-Jul-08 18:00N 44°07' E 028°39'2 3.2
2018-Jul-08 17:29N 44°06' E 028°37'0 0.0
2018-Jul-08 17:00N 44°06' E 028°37'1 1.1
2018-Jul-08 16:30N 44°06' E 028°36'2 4.6
2018-Jul-08 16:00N 44°06' E 028°33'5 5.4
2018-Jul-08 15:07N 44°07' E 028°27'2 6.6
2018-Jul-08 14:47N 44°09' E 028°26'2 6.7
2018-Jul-08 14:26N 44°11' E 028°24'3 6.9
2018-Jul-08 14:00N 44°14' E 028°22'3 6.0
2018-Jul-08 13:27N 44°15' E 028°18'7 6.6
2018-Jul-08 12:22N 44°16' E 028°08'  
Track history (hours):
 
Tides and Currents Weather Stations Pressure Air Temp Water Temp Dewpoint Dewpoint Depression Visibility Wind Speed Wind Dir Waves Ship Positions

Metaltrade 3

Last reported at 2018-Jul-16 16:26 UTC. Time now 2018-Jul-17 22:38 UTC.
Position N 44°17' E 028°04'.

Length 95 m; draft 2.5 m.

Type: Ship. MMSI: 264160431.

Date/timePositionNaut miles runAvg speedWind from/ knotsBaromVisibWave heightAir tempDewpointWater temp
2018-Jul-16 16:26N 44°17' E 028°04'3 6.8
2018-Jul-16 15:58N 44°16' E 028°08'3 7.0
2018-Jul-16 15:30N 44°16' E 028°12'4 6.9
2018-Jul-16 15:00N 44°15' E 028°17'3 6.4
2018-Jul-16 14:30N 44°14' E 028°22'4 6.6
2018-Jul-16 13:56N 44°11' E 028°24'8 5.9
2018-Jul-16 12:34N 44°06' E 028°33'1 6.6
2018-Jul-16 12:28N 44°06' E 028°34'3 5.7
2018-Jul-16 12:00N 44°06' E 028°37'0 0.5
2018-Jul-16 11:30N 44°06' E 028°38'2 3.0
2018-Jul-16 11:00N 44°07' E 028°39'0 0.1
2018-Jul-16 10:31N 44°07' E 028°39'0 0.0
2018-Jul-16 10:00N 44°07' E 028°39'0 0.0
2018-Jul-16 09:30N 44°07' E 028°39'0 0.0
2018-Jul-16 09:00N 44°07' E 028°39'0 0.0
2018-Jul-16 08:30N 44°07' E 028°39'0 0.0
2018-Jul-16 08:00N 44°07' E 028°39'0 0.0
2018-Jul-16 07:30N 44°07' E 028°39'0 0.0
2018-Jul-16 07:00N 44°07' E 028°39'0 0.0
2018-Jul-16 06:30N 44°07' E 028°39'0 0.0
2018-Jul-16 06:00N 44°07' E 028°39'0 0.0
2018-Jul-16 05:30N 44°07' E 028°39'0 0.0
2018-Jul-16 05:00N 44°07' E 028°39'0 0.0
2018-Jul-16 04:30N 44°07' E 028°39'0 0.0
2018-Jul-16 04:00N 44°07' E 028°39'1 2.4
2018-Jul-16 03:30N 44°08' E 028°39'2 3.5
2018-Jul-16 03:00N 44°10' E 028°39'0 0.1
2018-Jul-16 02:30N 44°10' E 028°39'0 0.0
2018-Jul-16 02:00N 44°10' E 028°39'0 0.0
2018-Jul-16 01:30N 44°10' E 028°39'0 0.0
2018-Jul-16 01:00N 44°10' E 028°39'0 0.0
2018-Jul-16 00:30N 44°10' E 028°39'0 0.0
2018-Jul-16 00:00N 44°10' E 028°39'0 0.0
2018-Jul-15 23:30N 44°10' E 028°39'0 0.0
2018-Jul-15 23:00N 44°10' E 028°39'0 0.0
2018-Jul-15 22:30N 44°10' E 028°39'0 0.0
2018-Jul-15 22:00N 44°10' E 028°39'0 0.0
2018-Jul-15 21:30N 44°10' E 028°39'0 0.0
2018-Jul-15 21:00N 44°10' E 028°39'0 0.0
2018-Jul-15 20:30N 44°10' E 028°39'0 0.0
2018-Jul-15 20:00N 44°10' E 028°39'0 0.0
2018-Jul-15 19:30N 44°10' E 028°39'0 0.0
2018-Jul-15 19:00N 44°10' E 028°39'0 0.0
2018-Jul-15 18:30N 44°10' E 028°39'0 0.0
2018-Jul-15 18:00N 44°10' E 028°39'0 0.0
2018-Jul-15 17:30N 44°10' E 028°39'0 0.0
2018-Jul-15 17:00N 44°10' E 028°39'0 0.0
2018-Jul-15 16:30N 44°10' E 028°39'0 0.0
2018-Jul-15 16:00N 44°10' E 028°39'0 0.0
2018-Jul-15 15:30N 44°10' E 028°39'0 0.0
2018-Jul-15 15:00N 44°10' E 028°39'0 0.0
2018-Jul-15 14:30N 44°10' E 028°39'0 0.0
2018-Jul-15 14:00N 44°10' E 028°39'0 0.0
2018-Jul-15 13:30N 44°10' E 028°39'1 1.8
2018-Jul-15 13:00N 44°09' E 028°39'2 4.0
2018-Jul-15 12:30N 44°07' E 028°39'0 0.4
2018-Jul-15 12:00N 44°07' E 028°39'0 0.0
2018-Jul-15 11:30N 44°07' E 028°39'0 0.0
2018-Jul-15 11:00N 44°07' E 028°39'0 0.0
2018-Jul-15 10:30N 44°07' E 028°39'0 0.0
2018-Jul-15 10:00N 44°07' E 028°39'0 0.0
2018-Jul-15 09:30N 44°07' E 028°39'0 0.0
2018-Jul-15 09:00N 44°07' E 028°39'0 0.0
2018-Jul-15 08:30N 44°07' E 028°39'0 0.0
2018-Jul-15 08:00N 44°07' E 028°39'0 0.0
2018-Jul-15 07:30N 44°07' E 028°39'0 0.0
2018-Jul-15 07:00N 44°07' E 028°39'0 0.0
2018-Jul-15 06:30N 44°07' E 028°39'0 0.0
2018-Jul-15 06:00N 44°07' E 028°39'0 0.0
2018-Jul-15 05:30N 44°07' E 028°39'0 0.0
2018-Jul-15 05:00N 44°07' E 028°39'0 0.0
2018-Jul-15 04:30N 44°07' E 028°39'0 0.0
2018-Jul-15 04:00N 44°07' E 028°39'0 0.0
2018-Jul-15 03:30N 44°07' E 028°39'0 0.0
2018-Jul-15 03:00N 44°07' E 028°39'0 0.0
2018-Jul-15 02:30N 44°07' E 028°39'0 0.0
2018-Jul-15 02:00N 44°07' E 028°39'0 0.0
2018-Jul-15 01:30N 44°07' E 028°39'0 0.0
2018-Jul-15 01:00N 44°07' E 028°39'0 0.0
2018-Jul-15 00:30N 44°07' E 028°39'0 0.0
2018-Jul-15 00:00N 44°07' E 028°39'0 0.0
2018-Jul-14 23:30N 44°07' E 028°39'0 0.0
2018-Jul-14 23:00N 44°07' E 028°39'0 0.0
2018-Jul-14 22:30N 44°07' E 028°39'0 0.0
2018-Jul-14 22:00N 44°07' E 028°39'0 0.0
2018-Jul-14 21:30N 44°07' E 028°39'0 0.0
2018-Jul-14 21:00N 44°07' E 028°39'0 0.0
2018-Jul-14 20:30N 44°07' E 028°39'0 0.0
2018-Jul-14 20:00N 44°07' E 028°39'0 0.0
2018-Jul-14 19:30N 44°07' E 028°39'0 0.0
2018-Jul-14 19:00N 44°07' E 028°39'0 0.0
2018-Jul-14 18:30N 44°07' E 028°39'0 0.0
2018-Jul-14 18:00N 44°07' E 028°39'0 0.0
2018-Jul-14 17:30N 44°07' E 028°39'0 0.0
2018-Jul-14 17:00N 44°07' E 028°39'0 0.0
2018-Jul-14 16:30N 44°07' E 028°39'0 0.0
2018-Jul-14 16:00N 44°07' E 028°39'0 0.0
2018-Jul-14 15:30N 44°07' E 028°39'0 0.0
2018-Jul-14 15:00N 44°07' E 028°39'0 0.0
2018-Jul-14 13:59N 44°07' E 028°39'0 0.0
2018-Jul-14 13:30N 44°07' E 028°39'0 0.0
2018-Jul-14 13:00N 44°07' E 028°39'0 0.0
2018-Jul-14 12:30N 44°07' E 028°39'0 0.0
2018-Jul-14 12:00N 44°07' E 028°39'0 0.0
2018-Jul-14 11:30N 44°07' E 028°39'0 0.0
2018-Jul-14 11:00N 44°07' E 028°39'0 0.0
2018-Jul-14 10:30N 44°07' E 028°39'0 0.0
2018-Jul-14 10:00N 44°07' E 028°39'0 0.0
2018-Jul-14 09:30N 44°07' E 028°39'0 0.0
2018-Jul-14 09:00N 44°07' E 028°39'0 0.0
2018-Jul-14 08:30N 44°07' E 028°39'0 0.1
2018-Jul-14 08:00N 44°07' E 028°39'1 2.2
2018-Jul-14 07:30N 44°06' E 028°39'0 0.0
2018-Jul-14 07:00N 44°06' E 028°39'0 0.0
2018-Jul-14 06:30N 44°06' E 028°39'0 0.0
2018-Jul-14 06:00N 44°06' E 028°39'1 2.3
2018-Jul-14 05:30N 44°07' E 028°39'0 0.1
2018-Jul-14 05:00N 44°07' E 028°39'0 0.0
2018-Jul-14 04:30N 44°07' E 028°39'0 0.0
2018-Jul-14 04:00N 44°07' E 028°39'0 0.0
2018-Jul-14 03:30N 44°07' E 028°39'0 0.0
2018-Jul-14 03:00N 44°07' E 028°39'0 0.0
2018-Jul-14 02:30N 44°07' E 028°39'0 0.0
2018-Jul-14 02:00N 44°07' E 028°39'0 0.0
2018-Jul-14 01:30N 44°07' E 028°39'0 0.0
2018-Jul-14 01:00N 44°07' E 028°39'0 0.0
2018-Jul-14 00:30N 44°07' E 028°39'0 0.0
2018-Jul-14 00:00N 44°07' E 028°39'0 0.0
2018-Jul-13 23:30N 44°07' E 028°39'0 0.0
2018-Jul-13 23:00N 44°07' E 028°39'0 0.0
2018-Jul-13 22:30N 44°07' E 028°39'0 0.0
2018-Jul-13 22:00N 44°07' E 028°39'0 0.0
2018-Jul-13 21:30N 44°07' E 028°39'0 0.0
2018-Jul-13 21:00N 44°07' E 028°39'0 0.0
2018-Jul-13 20:30N 44°07' E 028°39'0 0.0
2018-Jul-13 20:00N 44°07' E 028°39'0 0.0
2018-Jul-13 19:30N 44°07' E 028°39'0 0.0
2018-Jul-13 19:00N 44°07' E 028°39'0 0.0
2018-Jul-13 18:30N 44°07' E 028°39'0 0.0
2018-Jul-13 18:00N 44°07' E 028°39'0 0.0
2018-Jul-13 17:30N 44°07' E 028°39'0 0.0
2018-Jul-13 17:00N 44°07' E 028°39'0 0.0
2018-Jul-13 16:30N 44°07' E 028°39'0 0.0
2018-Jul-13 16:00N 44°07' E 028°39'0 0.0
2018-Jul-13 15:30N 44°07' E 028°39'0 0.0
2018-Jul-13 15:00N 44°07' E 028°39'0 0.0
2018-Jul-13 14:00N 44°07' E 028°39'0 0.0
2018-Jul-13 13:30N 44°07' E 028°39'0 0.0
2018-Jul-13 13:00N 44°07' E 028°39'0 0.0
2018-Jul-13 12:30N 44°07' E 028°39'0 0.0
2018-Jul-13 12:00N 44°07' E 028°39'0 0.0
2018-Jul-13 11:30N 44°07' E 028°39'0 0.0
2018-Jul-13 11:00N 44°07' E 028°39'0 0.0
2018-Jul-13 10:30N 44°07' E 028°39'0 0.0
2018-Jul-13 10:00N 44°07' E 028°39'0 0.0
2018-Jul-13 09:30N 44°07' E 028°39'0 0.0
2018-Jul-13 09:00N 44°07' E 028°39'0 0.0
2018-Jul-13 08:30N 44°07' E 028°39'0 0.0
2018-Jul-13 08:00N 44°07' E 028°39'0 0.0
2018-Jul-13 07:30N 44°07' E 028°39'0 0.0
2018-Jul-13 07:00N 44°07' E 028°39'0 0.0
2018-Jul-13 06:30N 44°07' E 028°39'0 0.0
2018-Jul-13 06:00N 44°07' E 028°39'0 0.0
2018-Jul-13 05:29N 44°07' E 028°39'0 0.0
2018-Jul-13 05:00N 44°07' E 028°39'0 0.0
2018-Jul-13 04:30N 44°07' E 028°39'0 0.0
2018-Jul-13 04:00N 44°07' E 028°39'0 0.0
2018-Jul-13 03:30N 44°07' E 028°39'0 0.0
2018-Jul-13 03:00N 44°07' E 028°39'0 0.0
2018-Jul-13 02:30N 44°07' E 028°39'0 0.0
2018-Jul-13 02:00N 44°07' E 028°39'0 0.0
2018-Jul-13 01:30N 44°07' E 028°39'0 0.0
2018-Jul-13 01:00N 44°07' E 028°39'0 0.0
2018-Jul-13 00:30N 44°07' E 028°39'0 0.0
2018-Jul-13 00:00N 44°07' E 028°39'0 0.0
2018-Jul-12 23:30N 44°07' E 028°39'0 0.0
2018-Jul-12 23:00N 44°07' E 028°39'0 0.0
2018-Jul-12 22:30N 44°07' E 028°39'0 0.0
2018-Jul-12 21:58N 44°07' E 028°39'0 0.0
2018-Jul-12 21:30N 44°07' E 028°39'0 0.0
2018-Jul-12 21:00N 44°07' E 028°39'0 0.0
2018-Jul-12 20:30N 44°07' E 028°39'0 0.0
2018-Jul-12 20:00N 44°07' E 028°39'0 0.0
2018-Jul-12 19:30N 44°07' E 028°39'0 0.0
2018-Jul-12 18:59N 44°07' E 028°39'0 0.0
2018-Jul-12 18:30N 44°07' E 028°39'0 0.0
2018-Jul-12 18:00N 44°07' E 028°39'0 0.0
2018-Jul-12 17:30N 44°07' E 028°39'0 0.0
2018-Jul-12 17:00N 44°07' E 028°39'0 0.0
2018-Jul-12 16:30N 44°07' E 028°39'0 0.0
2018-Jul-12 16:00N 44°07' E 028°39'0 0.0
2018-Jul-12 15:30N 44°07' E 028°39'0 0.0
2018-Jul-12 15:00N 44°07' E 028°39'0 0.0
2018-Jul-12 14:30N 44°07' E 028°39'0 0.0
2018-Jul-12 14:00N 44°07' E 028°39'0 0.0
2018-Jul-12 13:30N 44°07' E 028°39'0 0.0
2018-Jul-12 13:00N 44°07' E 028°39'0 0.0
2018-Jul-12 12:30N 44°07' E 028°39'0 0.0
2018-Jul-12 12:00N 44°07' E 028°39'0 0.0
2018-Jul-12 11:30N 44°07' E 028°39'0 0.0
2018-Jul-12 11:00N 44°07' E 028°39'0 0.0
2018-Jul-12 10:30N 44°07' E 028°39'0 0.0
2018-Jul-12 10:00N 44°07' E 028°39'0 0.0
2018-Jul-12 09:30N 44°07' E 028°39'0 0.0
2018-Jul-12 09:00N 44°07' E 028°39'0 0.0
2018-Jul-12 08:30N 44°07' E 028°39'0 0.0
2018-Jul-12 08:00N 44°07' E 028°39'0 0.0
2018-Jul-12 07:30N 44°07' E 028°39'0 0.0
2018-Jul-12 06:58N 44°07' E 028°39'0 0.0
2018-Jul-12 06:30N 44°07' E 028°39'0 0.0
2018-Jul-12 06:00N 44°07' E 028°39'0 0.0
2018-Jul-12 05:30N 44°07' E 028°39'0 0.0
2018-Jul-12 05:00N 44°07' E 028°39'0 0.0
2018-Jul-12 04:30N 44°07' E 028°39'0 0.0
2018-Jul-12 04:00N 44°07' E 028°39'0 0.0
2018-Jul-12 03:30N 44°07' E 028°39'0 0.0
2018-Jul-12 03:00N 44°07' E 028°39'0 0.0
2018-Jul-12 02:30N 44°07' E 028°39'0 0.0
2018-Jul-12 02:00N 44°07' E 028°39'0 0.0
2018-Jul-12 01:30N 44°07' E 028°39'0 0.0
2018-Jul-12 01:00N 44°07' E 028°39'0 0.0
2018-Jul-12 00:30N 44°07' E 028°39'0 0.0
2018-Jul-12 00:00N 44°07' E 028°39'0 0.0
2018-Jul-11 23:30N 44°07' E 028°39'0 0.0
2018-Jul-11 23:00N 44°07' E 028°39'0 0.0
2018-Jul-11 22:30N 44°07' E 028°39'0 0.0
2018-Jul-11 22:00N 44°07' E 028°39'0 0.0
2018-Jul-11 21:30N 44°07' E 028°39'0 0.0
2018-Jul-11 21:00N 44°07' E 028°39'0 0.0
2018-Jul-11 20:30N 44°07' E 028°39'0 0.0
2018-Jul-11 20:00N 44°07' E 028°39'0 0.0
2018-Jul-11 19:30N 44°07' E 028°39'0 0.0
2018-Jul-11 19:00N 44°07' E 028°39'0 0.0
2018-Jul-11 18:30N 44°07' E 028°39'0 0.0
2018-Jul-11 18:00N 44°07' E 028°39'0 0.0
2018-Jul-11 17:30N 44°07' E 028°39'0 0.0
2018-Jul-11 17:00N 44°07' E 028°39'0 0.0
2018-Jul-11 16:30N 44°07' E 028°39'0 0.0
2018-Jul-11 16:00N 44°07' E 028°39'0 0.0
2018-Jul-11 15:30N 44°07' E 028°39'0 0.0
2018-Jul-11 15:00N 44°07' E 028°39'0 0.0
2018-Jul-11 14:30N 44°07' E 028°39'0 0.0
2018-Jul-11 14:00N 44°07' E 028°39'0 0.0
2018-Jul-11 13:30N 44°07' E 028°39'0 0.0
2018-Jul-11 13:00N 44°07' E 028°39'0 0.0
2018-Jul-11 12:30N 44°07' E 028°39'0 0.0
2018-Jul-11 12:00N 44°07' E 028°39'0 0.0
2018-Jul-11 11:30N 44°07' E 028°39'0 0.0
2018-Jul-11 11:00N 44°07' E 028°39'0 0.0
2018-Jul-11 10:30N 44°07' E 028°39'0 0.0
2018-Jul-11 10:00N 44°07' E 028°39'0 0.0
2018-Jul-11 09:30N 44°07' E 028°39'0 0.0
2018-Jul-11 09:00N 44°07' E 028°39'0 0.0
2018-Jul-11 08:30N 44°07' E 028°39'0 0.0
2018-Jul-11 08:00N 44°07' E 028°39'0 0.2
2018-Jul-11 07:30N 44°07' E 028°39'0 0.0
2018-Jul-11 07:00N 44°07' E 028°39'0 0.0
2018-Jul-11 06:30N 44°07' E 028°39'0 0.0
2018-Jul-11 06:00N 44°07' E 028°39'0 0.0
2018-Jul-11 05:30N 44°07' E 028°39'0 0.0
2018-Jul-11 05:00N 44°07' E 028°39'0 0.0
2018-Jul-11 04:30N 44°07' E 028°39'0 0.0
2018-Jul-11 04:00N 44°07' E 028°39'0 0.0
2018-Jul-11 03:30N 44°07' E 028°39'0 0.0
2018-Jul-11 03:00N 44°07' E 028°39'0 0.0
2018-Jul-11 02:30N 44°07' E 028°39'0 0.0
2018-Jul-11 02:00N 44°07' E 028°39'0 0.0
2018-Jul-11 01:30N 44°07' E 028°39'0 0.0
2018-Jul-11 01:00N 44°07' E 028°39'0 0.0
2018-Jul-11 00:30N 44°07' E 028°39'0 0.0
2018-Jul-11 00:00N 44°07' E 028°39'0 0.0
2018-Jul-10 23:30N 44°07' E 028°39'0 0.0
2018-Jul-10 23:00N 44°07' E 028°39'0 0.0
2018-Jul-10 22:30N 44°07' E 028°39'0 0.0
2018-Jul-10 22:00N 44°07' E 028°39'0 0.0
2018-Jul-10 21:30N 44°07' E 028°39'0 0.0
2018-Jul-10 21:00N 44°07' E 028°39'0 0.0
2018-Jul-10 20:30N 44°07' E 028°39'0 0.0
2018-Jul-10 20:00N 44°07' E 028°39'0 0.0
2018-Jul-10 19:30N 44°07' E 028°39'0 0.0
2018-Jul-10 19:00N 44°07' E 028°39'0 0.0
2018-Jul-10 18:30N 44°07' E 028°39'0 0.0
2018-Jul-10 18:00N 44°07' E 028°39'0 0.0
2018-Jul-10 17:30N 44°07' E 028°39'0 0.0
2018-Jul-10 16:58N 44°07' E 028°39'0 0.0
2018-Jul-10 16:30N 44°07' E 028°39'0 0.0
2018-Jul-10 16:00N 44°07' E 028°39'0 0.0
2018-Jul-10 15:30N 44°07' E 028°39'0 0.0
2018-Jul-10 15:00N 44°07' E 028°39'0 0.0
2018-Jul-10 14:30N 44°07' E 028°39'0 0.0
2018-Jul-10 14:00N 44°07' E 028°39'0 0.0
2018-Jul-10 13:30N 44°07' E 028°39'0 0.0
2018-Jul-10 13:00N 44°07' E 028°39'0 0.0
2018-Jul-10 12:30N 44°07' E 028°39'0 0.0
2018-Jul-10 12:00N 44°07' E 028°39'0 0.0
2018-Jul-10 11:30N 44°07' E 028°39'0 0.0
2018-Jul-10 11:00N 44°07' E 028°39'0 0.0
2018-Jul-10 10:30N 44°07' E 028°39'0 0.0
2018-Jul-10 10:00N 44°07' E 028°39'0 0.0
2018-Jul-10 09:30N 44°07' E 028°39'0 0.0
2018-Jul-10 09:00N 44°07' E 028°39'0 0.0
2018-Jul-10 08:30N 44°07' E 028°39'0 0.0
2018-Jul-10 08:00N 44°07' E 028°39'0 0.0
2018-Jul-10 07:29N 44°07' E 028°39'0 0.1
2018-Jul-10 07:00N 44°07' E 028°39'1 1.1
2018-Jul-10 06:30N 44°07' E 028°39'0 0.0
2018-Jul-10 06:00N 44°07' E 028°39'1 1.5
2018-Jul-10 05:30N 44°07' E 028°39'0 0.4
2018-Jul-10 04:59N 44°07' E 028°39'0 0.0
2018-Jul-10 04:30N 44°07' E 028°39'0 0.0
2018-Jul-10 04:00N 44°07' E 028°39'0 0.0
2018-Jul-10 03:30N 44°07' E 028°39'0 0.0
2018-Jul-10 03:00N 44°07' E 028°39'0 0.0
2018-Jul-10 02:30N 44°07' E 028°39'0 0.0
2018-Jul-10 02:00N 44°07' E 028°39'0 0.0
2018-Jul-10 01:30N 44°07' E 028°39'0 0.0
2018-Jul-10 01:00N 44°07' E 028°39'0 0.0
2018-Jul-10 00:30N 44°07' E 028°39'0 0.0
2018-Jul-10 00:00N 44°07' E 028°39'0 0.0
2018-Jul-09 23:30N 44°07' E 028°39'0 0.0
2018-Jul-09 23:00N 44°07' E 028°39'0 0.0
2018-Jul-09 22:30N 44°07' E 028°39'0 0.0
2018-Jul-09 22:00N 44°07' E 028°39'0 0.0
2018-Jul-09 21:30N 44°07' E 028°39'0 0.0
2018-Jul-09 21:00N 44°07' E 028°39'0 0.0
2018-Jul-09 20:30N 44°07' E 028°39'0 0.0
2018-Jul-09 20:00N 44°07' E 028°39'0 0.0
2018-Jul-09 19:30N 44°07' E 028°39'0 0.0
2018-Jul-09 19:00N 44°07' E 028°39'0 0.0
2018-Jul-09 18:30N 44°07' E 028°39'0 0.0
2018-Jul-09 18:00N 44°07' E 028°39'0 0.0
2018-Jul-09 17:30N 44°07' E 028°39'0 0.0
2018-Jul-09 17:00N 44°07' E 028°39'0 0.0
2018-Jul-09 16:30N 44°07' E 028°39'0 0.0
2018-Jul-09 16:00N 44°07' E 028°39'0 0.0
2018-Jul-09 15:30N 44°07' E 028°39'0 0.0
2018-Jul-09 15:00N 44°07' E 028°39'0 0.0
2018-Jul-09 14:30N 44°07' E 028°39'0 0.0
2018-Jul-09 14:00N 44°07' E 028°39'0 0.0
2018-Jul-09 13:30N 44°07' E 028°39'0 0.2
2018-Jul-09 13:00N 44°07' E 028°39'0 0.0
2018-Jul-09 12:30N 44°07' E 028°39'0 0.0
2018-Jul-09 12:01N 44°07' E 028°39'0 0.0
2018-Jul-09 11:30N 44°07' E 028°39'0 0.0
2018-Jul-09 11:00N 44°07' E 028°39'0 0.0
2018-Jul-09 10:30N 44°07' E 028°39'0 0.0
2018-Jul-09 10:00N 44°07' E 028°39'0 0.0
2018-Jul-09 09:30N 44°07' E 028°39'0 0.0
2018-Jul-09 09:00N 44°07' E 028°39'0 0.0
2018-Jul-09 08:30N 44°07' E 028°39'0 0.2
2018-Jul-09 08:00N 44°07' E 028°39'0 0.0
2018-Jul-09 07:30N 44°07' E 028°39'0 0.0
2018-Jul-09 07:00N 44°07' E 028°39'0 0.0
2018-Jul-09 06:30N 44°07' E 028°39'0 0.0
2018-Jul-09 06:00N 44°07' E 028°39'0 0.0
2018-Jul-09 05:30N 44°07' E 028°39'0 0.0
2018-Jul-09 05:00N 44°07' E 028°39'0 0.0
2018-Jul-09 04:30N 44°07' E 028°39'0 0.0
2018-Jul-09 04:00N 44°07' E 028°39'0 0.0
2018-Jul-09 03:30N 44°07' E 028°39'0 0.0
2018-Jul-09 03:00N 44°07' E 028°39'0 0.0
2018-Jul-09 02:30N 44°07' E 028°39'0 0.0
2018-Jul-09 02:00N 44°07' E 028°39'0 0.0
2018-Jul-09 01:30N 44°07' E 028°39'0 0.0
2018-Jul-09 01:00N 44°07' E 028°39'0 0.0
2018-Jul-09 00:30N 44°07' E 028°39'0 0.0
2018-Jul-09 00:00N 44°07' E 028°39'0 0.0
2018-Jul-08 23:30N 44°07' E 028°39'0 0.0
2018-Jul-08 23:00N 44°07' E 028°39'0 0.0
2018-Jul-08 22:30N 44°07' E 028°39'0 0.0
2018-Jul-08 22:00N 44°07' E 028°39'0 0.0
2018-Jul-08 21:30N 44°07' E 028°39'0 0.0
2018-Jul-08 21:00N 44°07' E 028°39'0 0.0
2018-Jul-08 20:30N 44°07' E 028°39'0 0.0
2018-Jul-08 20:00N 44°07' E 028°39'0 0.0
2018-Jul-08 19:30N 44°07' E 028°39'0 0.0
2018-Jul-08 19:00N 44°07' E 028°39'0 0.0
2018-Jul-08 18:30N 44°07' E 028°39'0 0.0
2018-Jul-08 18:00N 44°07' E 028°39'2 3.2
2018-Jul-08 17:29N 44°06' E 028°37'0 0.0
2018-Jul-08 17:00N 44°06' E 028°37'1 1.1
2018-Jul-08 16:30N 44°06' E 028°36'2 4.6
2018-Jul-08 16:00N 44°06' E 028°33'5 5.4
2018-Jul-08 15:07N 44°07' E 028°27'2 6.6
2018-Jul-08 14:47N 44°09' E 028°26'2 6.7
2018-Jul-08 14:26N 44°11' E 028°24'3 6.9
2018-Jul-08 14:00N 44°14' E 028°22'3 6.0
2018-Jul-08 13:27N 44°15' E 028°18'7 6.6
2018-Jul-08 12:22N 44°16' E 028°08'  

Dump ship's entire track history